sensor_id;sensor_type;location;lat;lon;timestamp;temperature;humidity
35633;DHT22;21754;48.216;-1.628;2023-03-04T00:01:46;6.10;99.90
35633;DHT22;21754;48.216;-1.628;2023-03-04T00:04:12;6.50;99.90
35633;DHT22;21754;48.216;-1.628;2023-03-04T00:06:38;6.20;99.90
35633;DHT22;21754;48.216;-1.628;2023-03-04T00:09:06;5.90;99.90
35633;DHT22;21754;48.216;-1.628;2023-03-04T00:11:32;6.10;99.90
35633;DHT22;21754;48.216;-1.628;2023-03-04T00:13:57;6.30;99.90
35633;DHT22;21754;48.216;-1.628;2023-03-04T00:16:24;5.90;99.90
35633;DHT22;21754;48.216;-1.628;2023-03-04T00:18:52;5.90;99.90
35633;DHT22;21754;48.216;-1.628;2023-03-04T00:21:17;5.90;99.90
35633;DHT22;21754;48.216;-1.628;2023-03-04T00:23:43;6.00;99.90
35633;DHT22;21754;48.216;-1.628;2023-03-04T00:26:08;6.40;99.90
35633;DHT22;21754;48.216;-1.628;2023-03-04T00:28:34;6.10;99.90
35633;DHT22;21754;48.216;-1.628;2023-03-04T00:31:00;6.20;99.90
35633;DHT22;21754;48.216;-1.628;2023-03-04T00:33:26;6.00;99.90
35633;DHT22;21754;48.216;-1.628;2023-03-04T00:35:51;6.00;99.90
35633;DHT22;21754;48.216;-1.628;2023-03-04T00:38:17;5.90;99.90
35633;DHT22;21754;48.216;-1.628;2023-03-04T00:40:43;5.90;99.90
35633;DHT22;21754;48.216;-1.628;2023-03-04T00:43:08;5.90;99.90
35633;DHT22;21754;48.216;-1.628;2023-03-04T00:45:34;6.00;99.90
35633;DHT22;21754;48.216;-1.628;2023-03-04T00:47:59;6.00;99.90
35633;DHT22;21754;48.216;-1.628;2023-03-04T00:50:25;6.00;99.90
35633;DHT22;21754;48.216;-1.628;2023-03-04T00:52:51;6.00;99.90
35633;DHT22;21754;48.216;-1.628;2023-03-04T00:55:17;6.30;99.90
35633;DHT22;21754;48.216;-1.628;2023-03-04T00:57:43;6.00;99.90
35633;DHT22;21754;48.216;-1.628;2023-03-04T01:00:09;6.00;99.90
35633;DHT22;21754;48.216;-1.628;2023-03-04T01:02:35;6.10;99.90
35633;DHT22;21754;48.216;-1.628;2023-03-04T01:05:00;6.10;99.90
35633;DHT22;21754;48.216;-1.628;2023-03-04T01:07:26;6.10;99.90
35633;DHT22;21754;48.216;-1.628;2023-03-04T01:09:52;6.10;99.90
35633;DHT22;21754;48.216;-1.628;2023-03-04T01:12:18;6.40;99.90
35633;DHT22;21754;48.216;-1.628;2023-03-04T01:14:43;6.10;99.90
35633;DHT22;21754;48.216;-1.628;2023-03-04T01:17:09;6.30;99.90
35633;DHT22;21754;48.216;-1.628;2023-03-04T01:19:36;6.10;99.90
35633;DHT22;21754;48.216;-1.628;2023-03-04T01:22:02;6.30;99.90
35633;DHT22;21754;48.216;-1.628;2023-03-04T01:24:28;6.10;99.90
35633;DHT22;21754;48.216;-1.628;2023-03-04T01:26:54;6.50;99.90
35633;DHT22;21754;48.216;-1.628;2023-03-04T01:29:20;6.40;99.90
35633;DHT22;21754;48.216;-1.628;2023-03-04T01:31:45;6.20;99.90
35633;DHT22;21754;48.216;-1.628;2023-03-04T01:34:11;6.30;99.90
35633;DHT22;21754;48.216;-1.628;2023-03-04T01:36:37;6.30;99.90
35633;DHT22;21754;48.216;-1.628;2023-03-04T01:39:03;6.30;99.90
35633;DHT22;21754;48.216;-1.628;2023-03-04T01:41:29;6.30;99.90
35633;DHT22;21754;48.216;-1.628;2023-03-04T01:43:56;6.40;99.90
35633;DHT22;21754;48.216;-1.628;2023-03-04T01:46:23;6.30;99.90
35633;DHT22;21754;48.216;-1.628;2023-03-04T01:48:49;6.50;99.90
35633;DHT22;21754;48.216;-1.628;2023-03-04T01:51:17;6.40;99.90
35633;DHT22;21754;48.216;-1.628;2023-03-04T01:53:43;6.50;99.90
35633;DHT22;21754;48.216;-1.628;2023-03-04T01:56:18;6.60;99.90
35633;DHT22;21754;48.216;-1.628;2023-03-04T01:58:44;7.00;99.90
35633;DHT22;21754;48.216;-1.628;2023-03-04T02:01:11;7.00;99.90
35633;DHT22;21754;48.216;-1.628;2023-03-04T02:03:37;6.70;99.90
35633;DHT22;21754;48.216;-1.628;2023-03-04T02:06:03;7.00;99.90
35633;DHT22;21754;48.216;-1.628;2023-03-04T02:08:29;6.70;99.90
35633;DHT22;21754;48.216;-1.628;2023-03-04T02:10:55;6.70;99.90
35633;DHT22;21754;48.216;-1.628;2023-03-04T02:13:21;6.70;99.90
35633;DHT22;21754;48.216;-1.628;2023-03-04T02:15:47;6.60;99.90
35633;DHT22;21754;48.216;-1.628;2023-03-04T02:18:17;6.90;99.90
35633;DHT22;21754;48.216;-1.628;2023-03-04T02:23:53;6.60;99.90
35633;DHT22;21754;48.216;-1.628;2023-03-04T02:26:23;6.50;99.90
35633;DHT22;21754;48.216;-1.628;2023-03-04T02:28:50;6.40;99.90
35633;DHT22;21754;48.216;-1.628;2023-03-04T02:31:36;6.60;99.90
35633;DHT22;21754;48.216;-1.628;2023-03-04T02:34:05;6.30;99.90
35633;DHT22;21754;48.216;-1.628;2023-03-04T02:36:32;6.20;99.90
35633;DHT22;21754;48.216;-1.628;2023-03-04T02:39:10;6.10;99.90
35633;DHT22;21754;48.216;-1.628;2023-03-04T02:41:36;6.10;99.90
35633;DHT22;21754;48.216;-1.628;2023-03-04T02:44:02;6.10;99.90
35633;DHT22;21754;48.216;-1.628;2023-03-04T02:46:28;6.30;99.90
35633;DHT22;21754;48.216;-1.628;2023-03-04T02:48:53;6.30;99.90
35633;DHT22;21754;48.216;-1.628;2023-03-04T02:51:19;6.10;99.90
35633;DHT22;21754;48.216;-1.628;2023-03-04T02:53:45;6.10;99.90
35633;DHT22;21754;48.216;-1.628;2023-03-04T02:56:11;6.20;99.90
35633;DHT22;21754;48.216;-1.628;2023-03-04T02:58:36;6.20;99.90
35633;DHT22;21754;48.216;-1.628;2023-03-04T03:01:06;6.20;99.90
35633;DHT22;21754;48.216;-1.628;2023-03-04T03:03:32;6.20;99.90
35633;DHT22;21754;48.216;-1.628;2023-03-04T03:05:58;6.20;99.90
35633;DHT22;21754;48.216;-1.628;2023-03-04T03:08:24;6.20;99.90
35633;DHT22;21754;48.216;-1.628;2023-03-04T03:10:49;6.30;99.90
35633;DHT22;21754;48.216;-1.628;2023-03-04T03:13:15;6.20;99.90
35633;DHT22;21754;48.216;-1.628;2023-03-04T03:15:40;6.10;99.90
35633;DHT22;21754;48.216;-1.628;2023-03-04T03:18:08;6.10;99.90
35633;DHT22;21754;48.216;-1.628;2023-03-04T03:20:34;6.10;99.90
35633;DHT22;21754;48.216;-1.628;2023-03-04T03:23:00;6.10;99.90
35633;DHT22;21754;48.216;-1.628;2023-03-04T03:25:26;6.10;99.90
35633;DHT22;21754;48.216;-1.628;2023-03-04T03:27:51;6.10;99.90
35633;DHT22;21754;48.216;-1.628;2023-03-04T03:30:17;6.00;99.90
35633;DHT22;21754;48.216;-1.628;2023-03-04T03:32:43;6.00;99.90
35633;DHT22;21754;48.216;-1.628;2023-03-04T03:35:09;6.10;99.90
35633;DHT22;21754;48.216;-1.628;2023-03-04T03:37:34;5.90;99.90
35633;DHT22;21754;48.216;-1.628;2023-03-04T03:40:00;5.80;99.90
35633;DHT22;21754;48.216;-1.628;2023-03-04T03:42:26;6.00;99.90
35633;DHT22;21754;48.216;-1.628;2023-03-04T03:44:52;5.80;99.90
35633;DHT22;21754;48.216;-1.628;2023-03-04T03:47:17;5.80;99.90
35633;DHT22;21754;48.216;-1.628;2023-03-04T03:49:43;6.00;99.90
35633;DHT22;21754;48.216;-1.628;2023-03-04T03:52:09;5.70;99.90
35633;DHT22;21754;48.216;-1.628;2023-03-04T03:54:35;5.70;99.90
35633;DHT22;21754;48.216;-1.628;2023-03-04T03:57:01;5.80;99.90
35633;DHT22;21754;48.216;-1.628;2023-03-04T03:59:26;5.70;99.90
35633;DHT22;21754;48.216;-1.628;2023-03-04T04:01:52;5.70;99.90
35633;DHT22;21754;48.216;-1.628;2023-03-04T04:04:18;5.70;99.90
35633;DHT22;21754;48.216;-1.628;2023-03-04T04:06:43;5.80;99.90
35633;DHT22;21754;48.216;-1.628;2023-03-04T04:09:09;6.00;99.90
35633;DHT22;21754;48.216;-1.628;2023-03-04T04:11:35;5.70;99.90
35633;DHT22;21754;48.216;-1.628;2023-03-04T04:14:00;5.70;99.90
35633;DHT22;21754;48.216;-1.628;2023-03-04T04:16:26;5.60;99.90
35633;DHT22;21754;48.216;-1.628;2023-03-04T04:18:52;5.60;99.90
35633;DHT22;21754;48.216;-1.628;2023-03-04T04:21:17;5.60;99.90
35633;DHT22;21754;48.216;-1.628;2023-03-04T04:23:43;5.90;99.90
35633;DHT22;21754;48.216;-1.628;2023-03-04T04:26:09;5.70;99.90
35633;DHT22;21754;48.216;-1.628;2023-03-04T04:31:00;5.50;99.90
35633;DHT22;21754;48.216;-1.628;2023-03-04T04:33:26;4.90;99.90
35633;DHT22;21754;48.216;-1.628;2023-03-04T04:38:18;5.30;99.90
35633;DHT22;21754;48.216;-1.628;2023-03-04T04:40:43;5.30;99.90
35633;DHT22;21754;48.216;-1.628;2023-03-04T04:43:09;5.10;99.90
35633;DHT22;21754;48.216;-1.628;2023-03-04T04:45:35;4.90;99.90
35633;DHT22;21754;48.216;-1.628;2023-03-04T04:50:26;5.00;99.90
35633;DHT22;21754;48.216;-1.628;2023-03-04T04:52:52;4.60;99.90
35633;DHT22;21754;48.216;-1.628;2023-03-04T04:55:18;4.60;99.90
35633;DHT22;21754;48.216;-1.628;2023-03-04T04:57:44;4.70;99.90
35633;DHT22;21754;48.216;-1.628;2023-03-04T05:00:10;4.80;99.90
35633;DHT22;21754;48.216;-1.628;2023-03-04T05:02:36;4.60;99.90
35633;DHT22;21754;48.216;-1.628;2023-03-04T05:05:06;4.70;99.90
35633;DHT22;21754;48.216;-1.628;2023-03-04T05:07:32;4.70;99.90
35633;DHT22;21754;48.216;-1.628;2023-03-04T05:09:58;4.70;99.90
35633;DHT22;21754;48.216;-1.628;2023-03-04T05:12:24;4.70;99.90
35633;DHT22;21754;48.216;-1.628;2023-03-04T05:14:49;4.90;99.90
35633;DHT22;21754;48.216;-1.628;2023-03-04T05:17:15;5.20;99.90
35633;DHT22;21754;48.216;-1.628;2023-03-04T05:19:41;5.00;99.90
35633;DHT22;21754;48.216;-1.628;2023-03-04T05:22:07;4.90;99.90
35633;DHT22;21754;48.216;-1.628;2023-03-04T05:24:32;5.00;99.90
35633;DHT22;21754;48.216;-1.628;2023-03-04T05:26:59;5.00;99.90
35633;DHT22;21754;48.216;-1.628;2023-03-04T05:29:25;5.30;99.90
35633;DHT22;21754;48.216;-1.628;2023-03-04T05:31:51;4.90;99.90
35633;DHT22;21754;48.216;-1.628;2023-03-04T05:34:16;4.80;99.90
35633;DHT22;21754;48.216;-1.628;2023-03-04T05:36:42;4.80;99.90
35633;DHT22;21754;48.216;-1.628;2023-03-04T05:39:08;4.80;99.90
35633;DHT22;21754;48.216;-1.628;2023-03-04T05:41:33;4.90;99.90
35633;DHT22;21754;48.216;-1.628;2023-03-04T05:43:59;4.90;99.90
35633;DHT22;21754;48.216;-1.628;2023-03-04T05:46:25;4.80;99.90
35633;DHT22;21754;48.216;-1.628;2023-03-04T05:48:52;4.90;99.90
35633;DHT22;21754;48.216;-1.628;2023-03-04T05:51:18;4.80;99.90
35633;DHT22;21754;48.216;-1.628;2023-03-04T05:53:44;5.00;99.90
35633;DHT22;21754;48.216;-1.628;2023-03-04T05:56:12;4.80;99.90
35633;DHT22;21754;48.216;-1.628;2023-03-04T05:58:39;5.30;99.90
35633;DHT22;21754;48.216;-1.628;2023-03-04T06:01:05;4.90;99.90
35633;DHT22;21754;48.216;-1.628;2023-03-04T06:03:31;4.90;99.90
35633;DHT22;21754;48.216;-1.628;2023-03-04T06:05:57;5.30;99.90
35633;DHT22;21754;48.216;-1.628;2023-03-04T06:08:23;5.20;99.90
35633;DHT22;21754;48.216;-1.628;2023-03-04T06:10:52;4.80;99.90
35633;DHT22;21754;48.216;-1.628;2023-03-04T06:13:18;4.90;99.90
35633;DHT22;21754;48.216;-1.628;2023-03-04T06:15:44;4.70;99.90
35633;DHT22;21754;48.216;-1.628;2023-03-04T06:18:10;4.90;99.90
35633;DHT22;21754;48.216;-1.628;2023-03-04T06:20:36;4.70;99.90
35633;DHT22;21754;48.216;-1.628;2023-03-04T06:23:02;4.80;99.90
35633;DHT22;21754;48.216;-1.628;2023-03-04T06:25:28;4.70;99.90
35633;DHT22;21754;48.216;-1.628;2023-03-04T06:27:54;4.60;99.90
35633;DHT22;21754;48.216;-1.628;2023-03-04T06:30:20;4.60;99.90
35633;DHT22;21754;48.216;-1.628;2023-03-04T06:32:46;4.80;99.90
35633;DHT22;21754;48.216;-1.628;2023-03-04T06:35:13;4.70;99.90
35633;DHT22;21754;48.216;-1.628;2023-03-04T06:37:39;4.40;99.90
35633;DHT22;21754;48.216;-1.628;2023-03-04T06:40:06;4.40;99.90
35633;DHT22;21754;48.216;-1.628;2023-03-04T06:42:33;4.40;99.90
35633;DHT22;21754;48.216;-1.628;2023-03-04T06:44:59;4.30;99.90
35633;DHT22;21754;48.216;-1.628;2023-03-04T06:47:24;4.30;99.90
35633;DHT22;21754;48.216;-1.628;2023-03-04T06:49:50;4.30;99.90
35633;DHT22;21754;48.216;-1.628;2023-03-04T06:52:17;4.70;99.90
35633;DHT22;21754;48.216;-1.628;2023-03-04T06:54:42;4.60;99.90
35633;DHT22;21754;48.216;-1.628;2023-03-04T06:57:08;4.40;99.90
35633;DHT22;21754;48.216;-1.628;2023-03-04T06:59:33;4.70;99.90
35633;DHT22;21754;48.216;-1.628;2023-03-04T07:01:59;4.40;99.90
35633;DHT22;21754;48.216;-1.628;2023-03-04T07:04:25;4.40;99.90
35633;DHT22;21754;48.216;-1.628;2023-03-04T07:06:51;4.50;99.90
35633;DHT22;21754;48.216;-1.628;2023-03-04T07:09:17;4.80;99.90
35633;DHT22;21754;48.216;-1.628;2023-03-04T07:11:43;4.70;99.90
35633;DHT22;21754;48.216;-1.628;2023-03-04T07:14:09;5.00;99.90
35633;DHT22;21754;48.216;-1.628;2023-03-04T07:16:35;4.70;99.90
35633;DHT22;21754;48.216;-1.628;2023-03-04T07:19:00;4.80;99.90
35633;DHT22;21754;48.216;-1.628;2023-03-04T07:21:26;4.80;99.90
35633;DHT22;21754;48.216;-1.628;2023-03-04T07:23:52;4.80;99.90
35633;DHT22;21754;48.216;-1.628;2023-03-04T07:26:18;5.20;99.90
35633;DHT22;21754;48.216;-1.628;2023-03-04T07:28:44;5.20;99.90
35633;DHT22;21754;48.216;-1.628;2023-03-04T07:31:24;4.90;99.90
35633;DHT22;21754;48.216;-1.628;2023-03-04T07:33:56;5.20;99.90
35633;DHT22;21754;48.216;-1.628;2023-03-04T07:36:22;5.10;99.90
35633;DHT22;21754;48.216;-1.628;2023-03-04T07:38:49;5.00;99.90
35633;DHT22;21754;48.216;-1.628;2023-03-04T07:41:16;4.80;99.90
35633;DHT22;21754;48.216;-1.628;2023-03-04T07:43:43;4.80;99.90
35633;DHT22;21754;48.216;-1.628;2023-03-04T07:46:09;4.80;99.90
35633;DHT22;21754;48.216;-1.628;2023-03-04T07:48:35;4.80;99.90
35633;DHT22;21754;48.216;-1.628;2023-03-04T07:51:14;5.20;99.90
35633;DHT22;21754;48.216;-1.628;2023-03-04T07:53:41;4.80;99.90
35633;DHT22;21754;48.216;-1.628;2023-03-04T07:56:14;5.00;99.90
35633;DHT22;21754;48.216;-1.628;2023-03-04T07:58:41;4.80;99.90
35633;DHT22;21754;48.216;-1.628;2023-03-04T08:01:11;4.80;99.90
35633;DHT22;21754;48.216;-1.628;2023-03-04T08:03:37;4.90;99.90
35633;DHT22;21754;48.216;-1.628;2023-03-04T08:06:08;4.90;99.90
35633;DHT22;21754;48.216;-1.628;2023-03-04T08:08:35;4.50;99.90
35633;DHT22;21754;48.216;-1.628;2023-03-04T08:11:10;4.50;99.90
35633;DHT22;21754;48.216;-1.628;2023-03-04T08:13:36;4.60;99.90
35633;DHT22;21754;48.216;-1.628;2023-03-04T08:16:02;4.60;99.90
35633;DHT22;21754;48.216;-1.628;2023-03-04T08:18:28;4.60;99.90
35633;DHT22;21754;48.216;-1.628;2023-03-04T08:20:53;4.80;99.90
35633;DHT22;21754;48.216;-1.628;2023-03-04T08:23:19;5.10;99.90
35633;DHT22;21754;48.216;-1.628;2023-03-04T08:25:45;5.10;99.90
35633;DHT22;21754;48.216;-1.628;2023-03-04T08:28:11;5.20;99.90
35633;DHT22;21754;48.216;-1.628;2023-03-04T08:30:38;5.20;99.90
35633;DHT22;21754;48.216;-1.628;2023-03-04T08:33:04;4.90;99.90
35633;DHT22;21754;48.216;-1.628;2023-03-04T08:35:32;4.90;99.90
35633;DHT22;21754;48.216;-1.628;2023-03-04T08:37:58;5.40;99.90
35633;DHT22;21754;48.216;-1.628;2023-03-04T08:40:23;5.70;99.90
35633;DHT22;21754;48.216;-1.628;2023-03-04T08:42:51;5.40;99.90
35633;DHT22;21754;48.216;-1.628;2023-03-04T08:45:17;5.60;99.90
35633;DHT22;21754;48.216;-1.628;2023-03-04T08:47:43;5.80;99.90
35633;DHT22;21754;48.216;-1.628;2023-03-04T08:50:09;6.10;99.90
35633;DHT22;21754;48.216;-1.628;2023-03-04T08:52:35;5.90;99.90
35633;DHT22;21754;48.216;-1.628;2023-03-04T08:55:01;6.00;99.90
35633;DHT22;21754;48.216;-1.628;2023-03-04T08:57:27;5.90;99.90
35633;DHT22;21754;48.216;-1.628;2023-03-04T08:59:53;6.10;99.90
35633;DHT22;21754;48.216;-1.628;2023-03-04T09:02:18;6.10;99.90
35633;DHT22;21754;48.216;-1.628;2023-03-04T09:04:44;6.20;99.90
35633;DHT22;21754;48.216;-1.628;2023-03-04T09:07:10;6.00;99.90
35633;DHT22;21754;48.216;-1.628;2023-03-04T09:09:36;6.40;99.90
35633;DHT22;21754;48.216;-1.628;2023-03-04T09:12:01;6.50;99.90
35633;DHT22;21754;48.216;-1.628;2023-03-04T09:14:27;6.60;99.90
35633;DHT22;21754;48.216;-1.628;2023-03-04T09:16:53;6.60;99.90
35633;DHT22;21754;48.216;-1.628;2023-03-04T09:19:19;6.70;99.90
35633;DHT22;21754;48.216;-1.628;2023-03-04T09:21:44;6.70;99.90
35633;DHT22;21754;48.216;-1.628;2023-03-04T09:24:10;6.80;99.90
35633;DHT22;21754;48.216;-1.628;2023-03-04T09:26:35;6.90;99.90
35633;DHT22;21754;48.216;-1.628;2023-03-04T09:29:02;7.00;99.90
35633;DHT22;21754;48.216;-1.628;2023-03-04T09:31:28;7.10;99.90
35633;DHT22;21754;48.216;-1.628;2023-03-04T09:33:55;7.10;99.90
35633;DHT22;21754;48.216;-1.628;2023-03-04T09:36:22;7.20;99.90
35633;DHT22;21754;48.216;-1.628;2023-03-04T09:38:47;7.20;99.90
35633;DHT22;21754;48.216;-1.628;2023-03-04T09:41:25;7.20;99.90
35633;DHT22;21754;48.216;-1.628;2023-03-04T09:43:53;7.30;99.90
35633;DHT22;21754;48.216;-1.628;2023-03-04T09:46:32;7.50;99.90
35633;DHT22;21754;48.216;-1.628;2023-03-04T09:48:58;7.50;99.90
35633;DHT22;21754;48.216;-1.628;2023-03-04T09:54:14;7.60;99.90
35633;DHT22;21754;48.216;-1.628;2023-03-04T09:56:42;7.70;99.90
35633;DHT22;21754;48.216;-1.628;2023-03-04T10:01:51;7.60;99.90
35633;DHT22;21754;48.216;-1.628;2023-03-04T10:04:40;7.60;99.90
35633;DHT22;21754;48.216;-1.628;2023-03-04T10:07:17;7.80;99.90
35633;DHT22;21754;48.216;-1.628;2023-03-04T10:12:33;7.90;99.90
35633;DHT22;21754;48.216;-1.628;2023-03-04T10:17:42;8.00;99.90
35633;DHT22;21754;48.216;-1.628;2023-03-04T10:32:57;8.10;99.90
35633;DHT22;21754;48.216;-1.628;2023-03-04T10:35:29;8.50;99.90
35633;DHT22;21754;48.216;-1.628;2023-03-04T10:38:01;8.50;99.90
35633;DHT22;21754;48.216;-1.628;2023-03-04T10:40:27;8.60;99.90
35633;DHT22;21754;48.216;-1.628;2023-03-04T10:42:53;8.70;99.90
35633;DHT22;21754;48.216;-1.628;2023-03-04T10:45:24;8.90;99.90
35633;DHT22;21754;48.216;-1.628;2023-03-04T10:47:54;8.80;99.90
35633;DHT22;21754;48.216;-1.628;2023-03-04T10:50:23;9.00;99.90
35633;DHT22;21754;48.216;-1.628;2023-03-04T10:52:50;9.20;99.90
35633;DHT22;21754;48.216;-1.628;2023-03-04T10:55:41;9.30;99.90
35633;DHT22;21754;48.216;-1.628;2023-03-04T10:58:13;9.30;99.90
35633;DHT22;21754;48.216;-1.628;2023-03-04T11:00:40;9.10;99.90
35633;DHT22;21754;48.216;-1.628;2023-03-04T11:05:38;9.10;99.90
35633;DHT22;21754;48.216;-1.628;2023-03-04T11:08:03;9.40;99.90
35633;DHT22;21754;48.216;-1.628;2023-03-04T11:13:15;9.70;99.90
35633;DHT22;21754;48.216;-1.628;2023-03-04T11:16:04;9.70;99.90
35633;DHT22;21754;48.216;-1.628;2023-03-04T11:18:41;9.40;99.90
35633;DHT22;21754;48.216;-1.628;2023-03-04T11:21:16;9.40;99.90
35633;DHT22;21754;48.216;-1.628;2023-03-04T11:23:52;9.40;99.90
35633;DHT22;21754;48.216;-1.628;2023-03-04T11:26:30;9.50;99.90
35633;DHT22;21754;48.216;-1.628;2023-03-04T11:29:30;9.50;99.90
35633;DHT22;21754;48.216;-1.628;2023-03-04T11:37:18;9.30;99.90
35633;DHT22;21754;48.216;-1.628;2023-03-04T11:40:00;9.30;99.90
35633;DHT22;21754;48.216;-1.628;2023-03-04T11:53:11;9.40;99.90
